createdAt,value
2022-10-05T00:00:04.323Z,101576.75
2022-10-05T00:02:32.258Z,101575.03
2022-10-05T00:04:59.384Z,101572.19
2022-10-05T00:07:26.097Z,101567.94
2022-10-05T00:09:56.373Z,101560.66
2022-10-05T00:12:24.295Z,101560.00
2022-10-05T00:14:55.813Z,101567.94
2022-10-05T00:17:25.418Z,101567.09
2022-10-05T00:19:53.947Z,101571.84
2022-10-05T00:22:32.326Z,101566.63
2022-10-05T00:25:01.874Z,101573.72
2022-10-05T00:27:39.121Z,101575.22
2022-10-05T00:30:19.357Z,101580.63
2022-10-05T00:32:46.554Z,101576.44
2022-10-05T00:35:14.666Z,101566.44
2022-10-05T00:37:41.748Z,101574.56
2022-10-05T00:40:28.851Z,101566.25
2022-10-05T00:43:25.641Z,101572.34
2022-10-05T00:46:02.856Z,101565.78
2022-10-05T00:48:46.153Z,101555.78
2022-10-05T00:51:18.478Z,101554.94
2022-10-05T00:53:56.616Z,101538.88
2022-10-05T00:56:35.205Z,101520.75
2022-10-05T00:59:29.578Z,101544.59
2022-10-05T01:02:11.374Z,101562.88
2022-10-05T01:04:56.354Z,101558.50
2022-10-05T01:07:23.438Z,101558.19
2022-10-05T01:09:52.591Z,101557.00
2022-10-05T01:12:37.402Z,101554.94
2022-10-05T01:15:30.958Z,101554.56
2022-10-05T01:18:07.090Z,101553.06
2022-10-05T01:20:48.785Z,101564.38
2022-10-05T01:23:33.472Z,101554.56
2022-10-05T01:26:09.045Z,101542.72
2022-10-05T01:28:47.331Z,101545.44
2022-10-05T01:31:21.135Z,101562.53
2022-10-05T01:34:11.187Z,101557.28
2022-10-05T01:36:51.262Z,101552.06
2022-10-05T01:39:42.706Z,101536.66
2022-10-05T01:42:18.184Z,101527.50
2022-10-05T01:45:09.616Z,101534.97
2022-10-05T01:47:49.742Z,101536.28
2022-10-05T01:50:53.370Z,101528.69
2022-10-05T01:53:25.727Z,101508.25
2022-10-05T01:55:56.441Z,101504.16
2022-10-05T01:58:33.320Z,101503.31
2022-10-05T02:01:36.257Z,101516.84
2022-10-05T02:04:42.679Z,101525.81
2022-10-05T02:07:14.654Z,101521.41
2022-10-05T02:09:51.999Z,101520.41
2022-10-05T02:12:23.659Z,101516.19
2022-10-05T02:14:55.420Z,101529.53
2022-10-05T02:17:32.371Z,101528.34
2022-10-05T02:20:11.761Z,101531.22
2022-10-05T02:22:46.745Z,101523.28
2022-10-05T02:25:20.349Z,101517.69
2022-10-05T02:28:02.441Z,101522.06
2022-10-05T02:30:31.675Z,101531.22
2022-10-05T02:33:13.216Z,101526.84
2022-10-05T02:35:39.793Z,101517.03
2022-10-05T02:38:06.286Z,101521.78
2022-10-05T02:40:40.498Z,101528.03
2022-10-05T02:43:49.227Z,101530.94
2022-10-05T02:46:32.390Z,101534.81
2022-10-05T02:49:20.567Z,101543.63
2022-10-05T02:52:05.303Z,101541.78
2022-10-05T02:54:51.397Z,101543.44
2022-10-05T02:57:58.065Z,101531.13
2022-10-05T03:00:32.258Z,101542.78
2022-10-05T03:03:03.467Z,101541.09
2022-10-05T03:05:52.542Z,101537.38
2022-10-05T03:08:39.919Z,101533.97
2022-10-05T03:11:14.831Z,101538.41
2022-10-05T03:13:50.035Z,101544.47
2022-10-05T03:16:17.141Z,101533.13
2022-10-05T03:19:17.746Z,101525.84
2022-10-05T03:21:50.392Z,101538.91
2022-10-05T03:24:35.452Z,101529.94
2022-10-05T03:27:04.969Z,101526.56
2022-10-05T03:29:49.429Z,101527.25
2022-10-05T03:32:24.934Z,101522.16
2022-10-05T03:35:10.609Z,101512.00
2022-10-05T03:38:00.340Z,101509.47
2022-10-05T03:40:35.069Z,101499.31
2022-10-05T03:43:33.686Z,101508.44
2022-10-05T03:46:13.828Z,101509.47
2022-10-05T03:48:48.805Z,101510.16
2022-10-05T03:51:18.054Z,101507.78
2022-10-05T03:53:50.087Z,101500.50
2022-10-05T03:56:25.169Z,101509.31
2022-10-05T03:59:05.974Z,101509.97
2022-10-05T04:01:56.830Z,101495.59
2022-10-05T04:04:30.442Z,101502.88
2022-10-05T04:06:58.095Z,101501.84
2022-10-05T04:09:34.148Z,101499.16
2022-10-05T04:12:23.279Z,101498.16
2022-10-05T04:14:58.160Z,101493.41
2022-10-05T04:17:42.543Z,101484.63
2022-10-05T04:20:19.800Z,101479.03
2022-10-05T04:23:12.056Z,101481.34
2022-10-05T04:25:53.924Z,101476.78
2022-10-05T04:28:38.243Z,101482.38
2022-10-05T04:31:10.104Z,101480.53
2022-10-05T04:33:36.705Z,101482.06
2022-10-05T04:36:22.193Z,101474.41
2022-10-05T04:39:34.601Z,101479.47
2022-10-05T04:42:37.101Z,101472.38
2022-10-05T04:45:28.456Z,101468.31
2022-10-05T04:48:17.535Z,101468.31
2022-10-05T04:51:15.961Z,101459.19
2022-10-05T04:53:58.798Z,101458.53
2022-10-05T04:56:45.193Z,101459.19
2022-10-05T04:59:38.863Z,101465.63
2022-10-05T05:02:28.577Z,101463.09
2022-10-05T05:05:02.330Z,101469.34
2022-10-05T05:07:55.032Z,101472.06
2022-10-05T05:10:43.303Z,101474.41
2022-10-05T05:13:38.739Z,101476.28
2022-10-05T05:16:12.816Z,101480.84
2022-10-05T05:19:10.558Z,101482.91
2022-10-05T05:22:07.716Z,101479.06
2022-10-05T05:24:48.677Z,101478.03
2022-10-05T05:27:50.066Z,101477.19
2022-10-05T05:30:49.571Z,101477.38
2022-10-05T05:33:29.052Z,101469.25
2022-10-05T05:36:23.516Z,101482.06
2022-10-05T05:39:16.799Z,101488.69
2022-10-05T05:42:20.646Z,101487.47
2022-10-05T05:44:53.755Z,101493.06
2022-10-05T05:47:52.089Z,101485.44
2022-10-05T05:50:48.110Z,101474.41
2022-10-05T05:53:20.742Z,101476.97
2022-10-05T05:55:53.820Z,101486.06
2022-10-05T05:58:27.392Z,101473.56
2022-10-05T06:00:56.629Z,101478.81
2022-10-05T06:03:30.267Z,101482.53
2022-10-05T06:06:01.846Z,101488.97
2022-10-05T06:08:47.955Z,101476.44
2022-10-05T06:11:23.108Z,101473.56
2022-10-05T06:13:50.368Z,101473.56
2022-10-05T06:16:35.058Z,101467.13
2022-10-05T06:19:11.386Z,101470.69
2022-10-05T06:22:14.954Z,101470.19
2022-10-05T06:25:13.902Z,101476.44
2022-10-05T06:28:16.330Z,101476.97
2022-10-05T06:31:18.013Z,101468.84
2022-10-05T06:33:53.850Z,101472.53
2022-10-05T06:36:32.453Z,101477.81
2022-10-05T06:39:29.508Z,101478.28
2022-10-05T06:42:27.393Z,101476.78
2022-10-05T06:45:06.126Z,101480.31
2022-10-05T06:47:37.926Z,101482.84
2022-10-05T06:50:41.466Z,101492.47
2022-10-05T06:53:20.120Z,101492.09
2022-10-05T06:56:10.196Z,101495.84
2022-10-05T06:59:03.870Z,101498.03
2022-10-05T07:01:58.433Z,101500.03
2022-10-05T07:04:27.742Z,101490.22
2022-10-05T07:07:06.820Z,101495.31
2022-10-05T07:09:58.279Z,101496.50
2022-10-05T07:12:30.974Z,101491.75
2022-10-05T07:15:02.255Z,101494.47
2022-10-05T07:17:53.123Z,101483.91
2022-10-05T07:20:48.920Z,101486.06
2022-10-05T07:23:46.331Z,101488.97
2022-10-05T07:26:39.722Z,101489.97
2022-10-05T07:29:42.294Z,101483.72
2022-10-05T07:32:39.781Z,101485.59
2022-10-05T07:35:36.430Z,101497.66
2022-10-05T07:38:33.011Z,101492.94
2022-10-05T07:41:09.098Z,101488.88
2022-10-05T07:43:57.885Z,101498.88
2022-10-05T07:46:43.814Z,101498.88
2022-10-05T07:49:47.406Z,101481.94
2022-10-05T07:52:24.796Z,101488.97
2022-10-05T07:55:22.761Z,101482.44
2022-10-05T07:58:07.788Z,101482.88
2022-10-05T08:00:52.232Z,101474.38
2022-10-05T08:03:41.978Z,101484.09
2022-10-05T08:06:15.473Z,101478.13
2022-10-05T08:08:50.614Z,101480.19
2022-10-05T08:11:22.929Z,101473.88
2022-10-05T08:13:58.587Z,101469.41
2022-10-05T08:16:31.462Z,101475.38
2022-10-05T08:19:17.478Z,101475.16
2022-10-05T08:21:55.853Z,101465.63
2022-10-05T08:24:43.798Z,101458.41
2022-10-05T08:27:14.879Z,101457.13
2022-10-05T08:29:55.941Z,101458.94
2022-10-05T08:32:30.526Z,101461.41
2022-10-05T08:35:50.937Z,101455.06
2022-10-05T08:38:23.555Z,101469.56
2022-10-05T08:41:27.310Z,101468.16
2022-10-05T08:43:59.925Z,101464.31
2022-10-05T08:46:35.578Z,101447.50
2022-10-05T08:49:11.150Z,101461.50
2022-10-05T08:52:01.927Z,101455.69
2022-10-05T08:54:52.642Z,101452.50
2022-10-05T08:57:54.748Z,101451.16
2022-10-05T09:00:23.484Z,101445.63
2022-10-05T09:03:04.779Z,101445.72
2022-10-05T09:06:01.077Z,101442.66
2022-10-05T09:08:59.179Z,101449.22
2022-10-05T09:11:41.408Z,101440.34
2022-10-05T09:14:34.358Z,101437.53
2022-10-05T09:17:39.102Z,101429.56
2022-10-05T09:20:23.903Z,101436.03
2022-10-05T09:23:13.815Z,101424.91
2022-10-05T09:25:52.053Z,101420.88
2022-10-05T09:28:44.537Z,101416.72
2022-10-05T09:31:51.544Z,101411.75
2022-10-05T09:34:58.962Z,101402.19
2022-10-05T09:37:56.319Z,101401.97
2022-10-05T09:40:25.978Z,101405.31
2022-10-05T09:43:21.554Z,101401.22
2022-10-05T09:46:03.100Z,101404.88
2022-10-05T09:48:47.851Z,101398.53
2022-10-05T09:51:42.450Z,101410.47
2022-10-05T09:54:24.123Z,101407.44
2022-10-05T09:56:51.790Z,101404.75
2022-10-05T09:59:24.051Z,101398.66
2022-10-05T10:02:05.013Z,101401.63
2022-10-05T10:05:01.676Z,101397.56
2022-10-05T10:08:07.143Z,101403.53
2022-10-05T10:10:48.140Z,101394.09
2022-10-05T10:13:17.590Z,101398.22
2022-10-05T10:15:48.401Z,101399.25
2022-10-05T10:18:24.138Z,101399.28
2022-10-05T10:21:07.815Z,101400.28
2022-10-05T10:24:03.663Z,101398.91
2022-10-05T10:27:07.593Z,101394.44
2022-10-05T10:29:39.945Z,101400.84
2022-10-05T10:32:35.370Z,101388.41
2022-10-05T10:35:25.187Z,101387.44
2022-10-05T10:38:23.749Z,101379.72
2022-10-05T10:41:05.154Z,101380.63
2022-10-05T10:43:52.937Z,101379.09
2022-10-05T10:46:34.732Z,101376.22
2022-10-05T10:49:16.856Z,101371.44
2022-10-05T10:51:43.772Z,101364.69
2022-10-05T10:54:39.627Z,101360.06
2022-10-05T10:57:17.055Z,101361.22
2022-10-05T11:00:28.236Z,101360.47
2022-10-05T11:03:28.217Z,101357.03
2022-10-05T11:06:21.256Z,101356.78
2022-10-05T11:09:09.698Z,101352.03
2022-10-05T11:11:56.142Z,101352.22
2022-10-05T11:14:41.010Z,101347.06
2022-10-05T11:17:15.586Z,101340.88
2022-10-05T11:20:05.212Z,101330.78
2022-10-05T11:22:34.694Z,101349.53
2022-10-05T11:25:22.661Z,101338.88
2022-10-05T11:28:08.014Z,101342.53
2022-10-05T11:31:05.468Z,101342.94
2022-10-05T11:33:59.617Z,101341.28
2022-10-05T11:36:34.958Z,101336.91
2022-10-05T11:39:15.997Z,101338.59
2022-10-05T11:42:23.473Z,101332.03
2022-10-05T11:45:27.905Z,101336.28
2022-10-05T11:48:33.832Z,101331.19
2022-10-05T11:51:37.989Z,101328.44
2022-10-05T11:54:35.144Z,101318.09
2022-10-05T11:57:19.164Z,101311.09
2022-10-05T12:00:18.025Z,101311.50
2022-10-05T12:03:12.404Z,101302.47
2022-10-05T12:06:21.997Z,101297.97
2022-10-05T12:09:23.336Z,101292.56
2022-10-05T12:11:57.641Z,101302.19
2022-10-05T12:14:33.645Z,101291.69
2022-10-05T12:17:03.108Z,101294.00
2022-10-05T12:19:42.116Z,101290.47
2022-10-05T12:22:31.497Z,101295.19
2022-10-05T12:25:04.899Z,101288.00
2022-10-05T12:27:38.320Z,101286.66
2022-10-05T12:30:34.753Z,101292.03
2022-10-05T12:33:16.505Z,101287.75
2022-10-05T12:35:52.818Z,101285.00
2022-10-05T12:38:44.770Z,101292.78
2022-10-05T12:41:40.417Z,101288.91
2022-10-05T12:44:18.757Z,101283.59
2022-10-05T12:47:02.088Z,101286.25
2022-10-05T12:49:44.107Z,101286.00
2022-10-05T12:52:28.447Z,101280.78
2022-10-05T12:55:09.926Z,101287.38
2022-10-05T12:58:05.292Z,101280.00
2022-10-05T13:00:37.255Z,101283.41
2022-10-05T13:03:59.214Z,101274.34
2022-10-05T13:06:44.612Z,101279.44
2022-10-05T13:09:36.642Z,101278.38
2022-10-05T13:12:19.113Z,101271.28
2022-10-05T13:15:23.993Z,101272.47
2022-10-05T13:17:59.498Z,101283.97
2022-10-05T13:20:35.357Z,101274.50
2022-10-05T13:23:13.665Z,101275.00
2022-10-05T13:25:55.250Z,101280.00
2022-10-05T13:28:37.467Z,101275.59
2022-10-05T13:31:15.523Z,101266.75
2022-10-05T13:33:48.874Z,101264.22
2022-10-05T13:36:31.320Z,101267.00
2022-10-05T13:39:15.524Z,101256.44
2022-10-05T13:42:03.588Z,101254.28
2022-10-05T13:44:32.947Z,101253.50
2022-10-05T13:47:06.740Z,101250.09
2022-10-05T13:50:02.352Z,101238.97
2022-10-05T13:52:38.373Z,101244.44
2022-10-05T13:55:22.809Z,101250.50
2022-10-05T13:58:15.140Z,101252.66
2022-10-05T14:00:57.883Z,101249.88
2022-10-05T14:03:27.430Z,101245.19
2022-10-05T14:05:59.932Z,101241.25
2022-10-05T14:08:34.062Z,101240.75
2022-10-05T14:11:40.229Z,101236.94
2022-10-05T14:14:10.198Z,101232.16
2022-10-05T14:17:00.559Z,101226.19
2022-10-05T14:19:32.260Z,101231.38
2022-10-05T14:22:01.954Z,101233.41
2022-10-05T14:24:44.732Z,101234.66
2022-10-05T14:27:25.896Z,101228.16
2022-10-05T14:30:02.206Z,101225.66
2022-10-05T14:32:43.370Z,101227.53
2022-10-05T14:35:16.581Z,101226.09
2022-10-05T14:38:00.680Z,101225.72
2022-10-05T14:40:34.151Z,101234.84
2022-10-05T14:43:21.035Z,101228.84
2022-10-05T14:46:24.981Z,101228.63
2022-10-05T14:49:27.384Z,101224.28
2022-10-05T14:51:56.723Z,101227.84
2022-10-05T14:54:34.047Z,101224.06
2022-10-05T14:57:23.223Z,101219.44
2022-10-05T15:00:11.759Z,101216.03
2022-10-05T15:02:56.246Z,101218.69
2022-10-05T15:05:24.764Z,101212.56
2022-10-05T15:07:57.197Z,101215.31
2022-10-05T15:10:29.474Z,101205.91
2022-10-05T15:13:08.037Z,101208.22
2022-10-05T15:15:59.982Z,101202.94
2022-10-05T15:18:45.003Z,101205.97
2022-10-05T15:21:42.313Z,101197.78
2022-10-05T15:24:17.143Z,101198.06
2022-10-05T15:26:50.550Z,101193.56
2022-10-05T15:29:24.178Z,101196.84
2022-10-05T15:32:15.406Z,101202.06
2022-10-05T15:35:00.239Z,101195.03
2022-10-05T15:37:47.640Z,101187.16
2022-10-05T15:40:30.409Z,101192.28
2022-10-05T15:43:03.407Z,101181.66
2022-10-05T15:45:37.509Z,101180.16
2022-10-05T15:48:20.042Z,101182.19
2022-10-05T15:51:00.264Z,101181.22
2022-10-05T15:54:24.484Z,101185.03
2022-10-05T15:56:59.347Z,101184.66
2022-10-05T15:59:33.802Z,101175.59
2022-10-05T16:02:07.098Z,101181.44
2022-10-05T16:05:04.461Z,101188.34
2022-10-05T16:08:02.018Z,101194.75
2022-10-05T16:10:33.748Z,101189.66
2022-10-05T16:13:11.789Z,101190.50
2022-10-05T16:15:46.401Z,101196.56
2022-10-05T16:18:30.248Z,101193.13
2022-10-05T16:21:15.154Z,101197.31
2022-10-05T16:23:53.936Z,101193.41
2022-10-05T16:26:23.042Z,101196.63
2022-10-05T16:29:02.615Z,101188.50
2022-10-05T16:31:54.484Z,101190.25
2022-10-05T16:34:31.742Z,101190.88
2022-10-05T16:37:16.709Z,101186.66
2022-10-05T16:39:46.275Z,101188.94
2022-10-05T16:42:47.753Z,101179.50
2022-10-05T16:45:22.828Z,101190.91
2022-10-05T16:48:19.778Z,101192.91
2022-10-05T16:51:11.166Z,101199.34
2022-10-05T16:53:42.333Z,101191.56
2022-10-05T16:56:25.306Z,101187.78
2022-10-05T16:59:19.558Z,101188.03
2022-10-05T17:02:05.000Z,101193.00
2022-10-05T17:04:52.307Z,101186.94
2022-10-05T17:07:21.642Z,101191.13
2022-10-05T17:09:57.339Z,101193.00
2022-10-05T17:12:32.797Z,101187.50
2022-10-05T17:15:29.147Z,101190.09
2022-10-05T17:18:01.776Z,101184.47
2022-10-05T17:20:55.461Z,101187.84
2022-10-05T17:23:32.104Z,101181.69
2022-10-05T17:26:16.273Z,101195.25
2022-10-05T17:28:51.851Z,101189.72
2022-10-05T17:31:21.716Z,101185.31
2022-10-05T17:34:00.201Z,101187.84
2022-10-05T17:36:50.443Z,101185.97
2022-10-05T17:39:22.490Z,101183.44
2022-10-05T17:41:49.587Z,101183.25
2022-10-05T17:44:24.430Z,101181.81
2022-10-05T17:47:03.902Z,101188.69
2022-10-05T17:50:26.768Z,101188.88
2022-10-05T17:53:38.480Z,101179.50
2022-10-05T17:56:05.606Z,101186.59
2022-10-05T17:58:32.064Z,101180.78
2022-10-05T18:00:58.502Z,101181.81
2022-10-05T18:03:35.821Z,101178.88
2022-10-05T18:06:22.003Z,101187.00
2022-10-05T18:08:48.565Z,101183.06
2022-10-05T18:11:36.758Z,101188.47
2022-10-05T18:14:49.522Z,101190.06
2022-10-05T18:17:50.714Z,101190.06
2022-10-05T18:20:26.651Z,101190.47
2022-10-05T18:23:09.393Z,101194.41
2022-10-05T18:26:04.627Z,101192.41
2022-10-05T18:29:13.971Z,101195.13
2022-10-05T18:32:00.266Z,101197.84
2022-10-05T18:34:51.325Z,101205.31
2022-10-05T18:37:36.602Z,101211.13
2022-10-05T18:40:14.789Z,101199.91
2022-10-05T18:43:04.042Z,101199.50
2022-10-05T18:45:45.513Z,101198.31
2022-10-05T18:48:35.765Z,101201.22
2022-10-05T18:51:37.701Z,101206.16
2022-10-05T18:54:39.485Z,101201.38
2022-10-05T18:57:39.916Z,101196.63
2022-10-05T19:00:18.123Z,101195.81
2022-10-05T19:03:03.670Z,101200.47
2022-10-05T19:05:46.893Z,101211.75
2022-10-05T19:08:26.520Z,101202.44
2022-10-05T19:11:00.809Z,101205.97
2022-10-05T19:14:05.601Z,101207.00
2022-10-05T19:16:35.070Z,101208.88
2022-10-05T19:19:33.150Z,101210.38
2022-10-05T19:22:33.104Z,101220.56
2022-10-05T19:25:05.483Z,101217.28
2022-10-05T19:28:02.507Z,101213.06
2022-10-05T19:30:45.527Z,101210.38
2022-10-05T19:33:42.819Z,101208.50
2022-10-05T19:36:36.002Z,101208.50
2022-10-05T19:39:43.941Z,101213.06
2022-10-05T19:42:36.741Z,101221.22
2022-10-05T19:45:16.093Z,101215.78
2022-10-05T19:48:15.291Z,101226.25
2022-10-05T19:50:54.729Z,101226.06
2022-10-05T19:53:32.723Z,101228.13
2022-10-05T19:56:22.445Z,101234.00
2022-10-05T19:58:50.236Z,101238.56
2022-10-05T20:01:25.375Z,101231.03
2022-10-05T20:03:53.325Z,101233.53
2022-10-05T20:06:21.708Z,101236.44
2022-10-05T20:08:52.945Z,101234.38
2022-10-05T20:11:27.043Z,101245.88
2022-10-05T20:13:53.555Z,101244.19
2022-10-05T20:19:49.792Z,101250.66
2022-10-05T20:22:28.484Z,101251.88
2022-10-05T20:24:57.914Z,101263.94
2022-10-05T20:27:39.700Z,101252.06
2022-10-05T20:30:07.482Z,101270.66
2022-10-05T20:32:34.093Z,101262.91
2022-10-05T20:35:00.742Z,101268.16
2022-10-05T20:37:27.318Z,101274.78
2022-10-05T20:39:53.849Z,101273.97
2022-10-05T20:42:23.776Z,101277.66
2022-10-05T20:44:55.794Z,101288.34
2022-10-05T20:47:23.789Z,101288.53
2022-10-05T20:49:50.333Z,101292.94
2022-10-05T20:52:16.916Z,101296.66
2022-10-05T20:54:43.463Z,101303.78
2022-10-05T20:57:10.067Z,101316.47
2022-10-05T20:59:37.387Z,101322.09
2022-10-05T21:02:04.639Z,101311.44
2022-10-05T21:04:40.207Z,101320.41
2022-10-05T21:07:07.284Z,101327.31
2022-10-05T21:09:33.923Z,101331.44
2022-10-05T21:12:00.451Z,101334.81
2022-10-05T21:14:30.525Z,101339.38
2022-10-05T21:16:57.091Z,101335.00
2022-10-05T21:19:23.610Z,101340.41
2022-10-05T21:21:50.179Z,101341.25
2022-10-05T21:24:17.330Z,101347.91
2022-10-05T21:26:44.946Z,101347.72
2022-10-05T21:29:13.051Z,101354.34
2022-10-05T21:31:40.331Z,101350.41
2022-10-05T21:34:07.402Z,101357.72
2022-10-05T21:36:34.628Z,101356.22
2022-10-05T21:39:01.669Z,101359.78
2022-10-05T21:41:28.216Z,101358.94
2022-10-05T21:43:54.799Z,101358.75
2022-10-05T21:46:26.311Z,101362.69
2022-10-05T21:48:54.292Z,101358.09
2022-10-05T21:51:24.077Z,101376.88
2022-10-05T21:53:57.187Z,101372.31
2022-10-05T21:56:29.132Z,101367.91
2022-10-05T21:58:55.776Z,101371.16
2022-10-05T22:01:23.081Z,101367.59
2022-10-05T22:03:49.932Z,101377.97
2022-10-05T22:06:16.534Z,101372.53
2022-10-05T22:08:43.195Z,101375.44
2022-10-05T22:11:15.827Z,101378.16
2022-10-05T22:13:53.212Z,101374.81
2022-10-05T22:16:23.604Z,101373.78
2022-10-05T22:18:50.235Z,101382.28
2022-10-05T22:21:17.277Z,101380.03
2022-10-05T22:23:45.899Z,101389.19
2022-10-05T22:26:16.366Z,101383.78
2022-10-05T22:28:44.208Z,101390.03
2022-10-05T22:31:12.752Z,101385.00
2022-10-05T22:33:40.840Z,101387.13
2022-10-05T22:36:08.366Z,101394.16
2022-10-05T22:38:34.976Z,101395.00
2022-10-05T22:41:01.543Z,101386.03
2022-10-05T22:43:28.136Z,101380.75
2022-10-05T22:45:56.018Z,101375.34
2022-10-05T22:48:22.652Z,101380.75
2022-10-05T22:50:49.366Z,101382.63
2022-10-05T22:53:15.998Z,101388.53
2022-10-05T22:55:42.587Z,101386.88
2022-10-05T22:58:09.116Z,101391.59
2022-10-05T23:00:57.094Z,101397.41
2022-10-05T23:03:22.177Z,101393.84
2022-10-05T23:05:56.285Z,101393.66
2022-10-05T23:08:22.798Z,101382.81
2022-10-05T23:10:49.310Z,101399.09
2022-10-05T23:13:15.900Z,101397.41
2022-10-05T23:15:42.464Z,101400.94
2022-10-05T23:18:08.985Z,101399.09
2022-10-05T23:20:35.577Z,101404.88
2022-10-05T23:23:02.095Z,101405.53
2022-10-05T23:25:28.614Z,101404.69
2022-10-05T23:27:55.170Z,101402.44
2022-10-05T23:30:21.750Z,101405.34
2022-10-05T23:32:48.292Z,101399.47
2022-10-05T23:35:14.986Z,101404.50
2022-10-05T23:37:43.941Z,101406.19
2022-10-05T23:40:13.153Z,101405.34
2022-10-05T23:42:40.873Z,101405.25
2022-10-05T23:45:09.142Z,101410.13
2022-10-05T23:47:35.808Z,101411.13
2022-10-05T23:50:03.404Z,101412.16
2022-10-05T23:52:29.948Z,101415.72
2022-10-05T23:54:56.540Z,101416.75
2022-10-05T23:57:23.076Z,101423.66
2022-10-05T23:59:52.616Z,101418.25
